sensor_id;sensor_type;location;lat;lon;timestamp;P1;durP1;ratioP1;P2;durP2;ratioP2
52210;SDS011;38179;52.756;6.906;2022-11-15T00:00:53;25.05;;;20.88;;
52210;SDS011;38179;52.756;6.906;2022-11-15T00:03:23;25.42;;;20.42;;
52210;SDS011;38179;52.756;6.906;2022-11-15T00:05:50;25.13;;;21.77;;
52210;SDS011;38179;52.756;6.906;2022-11-15T00:08:16;24.92;;;21.55;;
52210;SDS011;38179;52.756;6.906;2022-11-15T00:10:42;25.23;;;20.67;;
52210;SDS011;38179;52.756;6.906;2022-11-15T00:13:12;23.65;;;20.88;;
52210;SDS011;38179;52.756;6.906;2022-11-15T00:15:38;24.52;;;21.02;;
52210;SDS011;38179;52.756;6.906;2022-11-15T00:18:06;27.42;;;21.80;;
52210;SDS011;38179;52.756;6.906;2022-11-15T00:20:37;26.70;;;22.33;;
52210;SDS011;38179;52.756;6.906;2022-11-15T00:23:03;30.42;;;23.48;;
52210;SDS011;38179;52.756;6.906;2022-11-15T00:25:30;27.50;;;23.67;;
52210;SDS011;38179;52.756;6.906;2022-11-15T00:27:57;30.83;;;23.15;;
52210;SDS011;38179;52.756;6.906;2022-11-15T00:30:23;28.88;;;22.67;;
52210;SDS011;38179;52.756;6.906;2022-11-15T00:32:49;28.13;;;23.23;;
52210;SDS011;38179;52.756;6.906;2022-11-15T00:35:15;27.05;;;21.85;;
52210;SDS011;38179;52.756;6.906;2022-11-15T00:37:41;28.80;;;21.33;;
52210;SDS011;38179;52.756;6.906;2022-11-15T00:40:07;31.92;;;23.38;;
52210;SDS011;38179;52.756;6.906;2022-11-15T00:42:37;26.92;;;21.70;;
52210;SDS011;38179;52.756;6.906;2022-11-15T00:45:04;25.20;;;21.70;;
52210;SDS011;38179;52.756;6.906;2022-11-15T00:47:30;26.23;;;22.50;;
52210;SDS011;38179;52.756;6.906;2022-11-15T00:49:56;27.25;;;21.83;;
52210;SDS011;38179;52.756;6.906;2022-11-15T00:52:22;25.83;;;21.05;;
52210;SDS011;38179;52.756;6.906;2022-11-15T00:54:47;27.15;;;22.00;;
52210;SDS011;38179;52.756;6.906;2022-11-15T00:57:13;26.60;;;21.92;;
52210;SDS011;38179;52.756;6.906;2022-11-15T00:59:39;25.83;;;21.40;;
52210;SDS011;38179;52.756;6.906;2022-11-15T01:02:05;27.70;;;21.92;;
52210;SDS011;38179;52.756;6.906;2022-11-15T01:04:31;26.40;;;21.25;;
52210;SDS011;38179;52.756;6.906;2022-11-15T01:06:57;32.92;;;22.63;;
52210;SDS011;38179;52.756;6.906;2022-11-15T01:09:22;29.60;;;21.85;;
52210;SDS011;38179;52.756;6.906;2022-11-15T01:11:48;26.42;;;21.25;;
52210;SDS011;38179;52.756;6.906;2022-11-15T01:14:14;29.20;;;22.23;;
52210;SDS011;38179;52.756;6.906;2022-11-15T01:16:40;28.75;;;21.52;;
52210;SDS011;38179;52.756;6.906;2022-11-15T01:19:07;28.60;;;22.48;;
52210;SDS011;38179;52.756;6.906;2022-11-15T01:21:33;27.48;;;22.25;;
52210;SDS011;38179;52.756;6.906;2022-11-15T01:23:59;26.52;;;21.63;;
52210;SDS011;38179;52.756;6.906;2022-11-15T01:26:25;29.95;;;22.67;;
52210;SDS011;38179;52.756;6.906;2022-11-15T01:28:51;27.70;;;21.13;;
52210;SDS011;38179;52.756;6.906;2022-11-15T01:31:19;25.92;;;21.33;;
52210;SDS011;38179;52.756;6.906;2022-11-15T01:33:46;29.25;;;22.90;;
52210;SDS011;38179;52.756;6.906;2022-11-15T01:36:17;25.30;;;20.52;;
52210;SDS011;38179;52.756;6.906;2022-11-15T01:38:46;26.50;;;20.45;;
52210;SDS011;38179;52.756;6.906;2022-11-15T01:41:20;26.98;;;22.05;;
52210;SDS011;38179;52.756;6.906;2022-11-15T01:43:55;27.92;;;22.80;;
52210;SDS011;38179;52.756;6.906;2022-11-15T01:46:33;25.55;;;20.90;;
52210;SDS011;38179;52.756;6.906;2022-11-15T01:49:03;26.63;;;21.42;;
52210;SDS011;38179;52.756;6.906;2022-11-15T01:51:36;27.75;;;21.75;;
52210;SDS011;38179;52.756;6.906;2022-11-15T01:54:07;29.10;;;23.02;;
52210;SDS011;38179;52.756;6.906;2022-11-15T01:56:38;26.65;;;21.20;;
52210;SDS011;38179;52.756;6.906;2022-11-15T01:59:10;26.73;;;20.60;;
52210;SDS011;38179;52.756;6.906;2022-11-15T02:01:36;25.60;;;20.75;;
52210;SDS011;38179;52.756;6.906;2022-11-15T02:04:11;31.30;;;21.75;;
52210;SDS011;38179;52.756;6.906;2022-11-15T02:06:38;29.48;;;21.20;;
52210;SDS011;38179;52.756;6.906;2022-11-15T02:09:05;27.55;;;21.00;;
52210;SDS011;38179;52.756;6.906;2022-11-15T02:11:31;31.35;;;22.42;;
52210;SDS011;38179;52.756;6.906;2022-11-15T02:13:57;30.50;;;22.85;;
52210;SDS011;38179;52.756;6.906;2022-11-15T02:19:27;28.83;;;22.40;;
52210;SDS011;38179;52.756;6.906;2022-11-15T02:22:10;28.65;;;21.52;;
52210;SDS011;38179;52.756;6.906;2022-11-15T02:30:53;31.15;;;23.65;;
52210;SDS011;38179;52.756;6.906;2022-11-15T02:41:15;29.48;;;22.60;;
52210;SDS011;38179;52.756;6.906;2022-11-15T02:43:50;31.40;;;23.38;;
52210;SDS011;38179;52.756;6.906;2022-11-15T02:46:37;31.25;;;23.35;;
52210;SDS011;38179;52.756;6.906;2022-11-15T02:49:33;28.60;;;22.27;;
52210;SDS011;38179;52.756;6.906;2022-11-15T02:52:00;31.92;;;23.58;;
52210;SDS011;38179;52.756;6.906;2022-11-15T02:54:29;32.53;;;23.27;;
52210;SDS011;38179;52.756;6.906;2022-11-15T02:57:01;34.03;;;23.67;;
52210;SDS011;38179;52.756;6.906;2022-11-15T03:04:57;34.00;;;24.35;;
52210;SDS011;38179;52.756;6.906;2022-11-15T03:10:18;32.80;;;24.95;;
52210;SDS011;38179;52.756;6.906;2022-11-15T03:12:56;35.03;;;25.20;;
52210;SDS011;38179;52.756;6.906;2022-11-15T03:15:37;34.28;;;24.45;;
52210;SDS011;38179;52.756;6.906;2022-11-15T03:18:10;37.55;;;23.98;;
52210;SDS011;38179;52.756;6.906;2022-11-15T03:20:42;31.27;;;24.52;;
52210;SDS011;38179;52.756;6.906;2022-11-15T03:23:10;38.58;;;25.00;;
52210;SDS011;38179;52.756;6.906;2022-11-15T03:25:38;36.58;;;25.45;;
52210;SDS011;38179;52.756;6.906;2022-11-15T03:28:09;36.20;;;26.02;;
52210;SDS011;38179;52.756;6.906;2022-11-15T03:30:38;37.40;;;26.02;;
52210;SDS011;38179;52.756;6.906;2022-11-15T03:33:06;42.25;;;25.75;;
52210;SDS011;38179;52.756;6.906;2022-11-15T03:35:35;39.38;;;26.77;;
52210;SDS011;38179;52.756;6.906;2022-11-15T03:38:11;39.55;;;25.83;;
52210;SDS011;38179;52.756;6.906;2022-11-15T03:41:05;40.58;;;27.00;;
52210;SDS011;38179;52.756;6.906;2022-11-15T03:46:28;39.03;;;27.20;;
52210;SDS011;38179;52.756;6.906;2022-11-15T03:49:09;42.58;;;27.27;;
52210;SDS011;38179;52.756;6.906;2022-11-15T03:51:42;41.03;;;27.27;;
52210;SDS011;38179;52.756;6.906;2022-11-15T03:54:08;40.58;;;26.83;;
52210;SDS011;38179;52.756;6.906;2022-11-15T03:56:36;40.70;;;28.95;;
52210;SDS011;38179;52.756;6.906;2022-11-15T03:59:02;45.10;;;28.60;;
52210;SDS011;38179;52.756;6.906;2022-11-15T04:01:28;45.33;;;29.50;;
52210;SDS011;38179;52.756;6.906;2022-11-15T04:03:54;46.42;;;30.30;;
52210;SDS011;38179;52.756;6.906;2022-11-15T04:06:20;39.88;;;29.25;;
52210;SDS011;38179;52.756;6.906;2022-11-15T04:08:45;46.88;;;30.60;;
52210;SDS011;38179;52.756;6.906;2022-11-15T04:11:11;45.30;;;31.45;;
52210;SDS011;38179;52.756;6.906;2022-11-15T04:13:37;46.83;;;31.13;;
52210;SDS011;38179;52.756;6.906;2022-11-15T04:16:03;48.25;;;31.23;;
52210;SDS011;38179;52.756;6.906;2022-11-15T04:18:29;49.25;;;32.33;;
52210;SDS011;38179;52.756;6.906;2022-11-15T04:20:55;45.88;;;30.70;;
52210;SDS011;38179;52.756;6.906;2022-11-15T04:23:39;46.90;;;31.30;;
52210;SDS011;38179;52.756;6.906;2022-11-15T04:26:40;46.80;;;31.65;;
52210;SDS011;38179;52.756;6.906;2022-11-15T04:29:06;49.95;;;31.73;;
52210;SDS011;38179;52.756;6.906;2022-11-15T04:31:50;49.75;;;32.22;;
52210;SDS011;38179;52.756;6.906;2022-11-15T04:34:16;48.13;;;31.95;;
52210;SDS011;38179;52.756;6.906;2022-11-15T04:36:42;50.67;;;30.88;;
52210;SDS011;38179;52.756;6.906;2022-11-15T04:39:26;50.78;;;32.22;;
52210;SDS011;38179;52.756;6.906;2022-11-15T04:41:52;47.78;;;30.73;;
52210;SDS011;38179;52.756;6.906;2022-11-15T04:44:18;47.90;;;31.30;;
52210;SDS011;38179;52.756;6.906;2022-11-15T04:46:43;45.42;;;30.75;;
52210;SDS011;38179;52.756;6.906;2022-11-15T04:49:09;49.15;;;30.52;;
52210;SDS011;38179;52.756;6.906;2022-11-15T04:51:35;44.95;;;29.83;;
52210;SDS011;38179;52.756;6.906;2022-11-15T04:54:01;45.67;;;30.58;;
52210;SDS011;38179;52.756;6.906;2022-11-15T04:56:27;42.22;;;29.20;;
52210;SDS011;38179;52.756;6.906;2022-11-15T04:58:53;41.22;;;29.27;;
52210;SDS011;38179;52.756;6.906;2022-11-15T05:01:18;45.33;;;29.85;;
52210;SDS011;38179;52.756;6.906;2022-11-15T05:03:44;45.47;;;31.85;;
52210;SDS011;38179;52.756;6.906;2022-11-15T05:06:29;47.35;;;30.52;;
52210;SDS011;38179;52.756;6.906;2022-11-15T05:08:55;39.80;;;29.30;;
52210;SDS011;38179;52.756;6.906;2022-11-15T05:11:21;46.20;;;29.83;;
52210;SDS011;38179;52.756;6.906;2022-11-15T05:13:48;44.10;;;29.45;;
52210;SDS011;38179;52.756;6.906;2022-11-15T05:16:14;38.83;;;28.92;;
52210;SDS011;38179;52.756;6.906;2022-11-15T05:18:40;46.15;;;29.70;;
52210;SDS011;38179;52.756;6.906;2022-11-15T05:21:06;42.63;;;29.17;;
52210;SDS011;38179;52.756;6.906;2022-11-15T05:23:34;41.00;;;29.98;;
52210;SDS011;38179;52.756;6.906;2022-11-15T05:26:01;42.35;;;30.40;;
52210;SDS011;38179;52.756;6.906;2022-11-15T05:28:28;44.25;;;29.50;;
52210;SDS011;38179;52.756;6.906;2022-11-15T05:31:04;39.35;;;30.08;;
52210;SDS011;38179;52.756;6.906;2022-11-15T05:33:31;39.47;;;28.15;;
52210;SDS011;38179;52.756;6.906;2022-11-15T05:36:00;39.28;;;28.40;;
52210;SDS011;38179;52.756;6.906;2022-11-15T05:38:43;42.33;;;29.33;;
52210;SDS011;38179;52.756;6.906;2022-11-15T05:41:11;37.00;;;28.42;;
52210;SDS011;38179;52.756;6.906;2022-11-15T05:43:38;39.28;;;28.40;;
52210;SDS011;38179;52.756;6.906;2022-11-15T05:46:05;36.60;;;28.63;;
52210;SDS011;38179;52.756;6.906;2022-11-15T05:48:32;36.05;;;27.95;;
52210;SDS011;38179;52.756;6.906;2022-11-15T05:51:03;37.25;;;27.77;;
52210;SDS011;38179;52.756;6.906;2022-11-15T05:53:30;34.75;;;27.85;;
52210;SDS011;38179;52.756;6.906;2022-11-15T05:55:57;34.85;;;27.40;;
52210;SDS011;38179;52.756;6.906;2022-11-15T05:58:23;37.03;;;28.48;;
52210;SDS011;38179;52.756;6.906;2022-11-15T06:00:48;40.65;;;28.08;;
52210;SDS011;38179;52.756;6.906;2022-11-15T06:03:14;38.83;;;29.00;;
52210;SDS011;38179;52.756;6.906;2022-11-15T06:05:40;38.63;;;28.63;;
52210;SDS011;38179;52.756;6.906;2022-11-15T06:08:06;33.25;;;26.55;;
52210;SDS011;38179;52.756;6.906;2022-11-15T06:10:32;38.10;;;27.58;;
52210;SDS011;38179;52.756;6.906;2022-11-15T06:12:59;33.67;;;28.35;;
52210;SDS011;38179;52.756;6.906;2022-11-15T06:15:26;36.78;;;28.17;;
52210;SDS011;38179;52.756;6.906;2022-11-15T06:17:51;36.85;;;26.92;;
52210;SDS011;38179;52.756;6.906;2022-11-15T06:20:22;38.45;;;28.60;;
52210;SDS011;38179;52.756;6.906;2022-11-15T06:22:49;35.67;;;27.25;;
52210;SDS011;38179;52.756;6.906;2022-11-15T06:25:15;38.00;;;27.70;;
52210;SDS011;38179;52.756;6.906;2022-11-15T06:27:41;34.22;;;26.77;;
52210;SDS011;38179;52.756;6.906;2022-11-15T06:30:06;35.92;;;28.08;;
52210;SDS011;38179;52.756;6.906;2022-11-15T06:32:33;36.22;;;26.63;;
52210;SDS011;38179;52.756;6.906;2022-11-15T06:34:59;35.65;;;27.13;;
52210;SDS011;38179;52.756;6.906;2022-11-15T06:37:24;34.80;;;27.13;;
52210;SDS011;38179;52.756;6.906;2022-11-15T06:39:50;33.78;;;26.77;;
52210;SDS011;38179;52.756;6.906;2022-11-15T06:42:16;29.67;;;25.40;;
52210;SDS011;38179;52.756;6.906;2022-11-15T06:44:42;32.80;;;26.70;;
52210;SDS011;38179;52.756;6.906;2022-11-15T06:47:08;39.65;;;27.48;;
52210;SDS011;38179;52.756;6.906;2022-11-15T06:49:33;36.67;;;27.52;;
52210;SDS011;38179;52.756;6.906;2022-11-15T06:51:59;36.75;;;26.80;;
52210;SDS011;38179;52.756;6.906;2022-11-15T06:54:25;34.40;;;26.73;;
52210;SDS011;38179;52.756;6.906;2022-11-15T06:56:51;34.08;;;26.27;;
52210;SDS011;38179;52.756;6.906;2022-11-15T06:59:17;31.88;;;26.33;;
52210;SDS011;38179;52.756;6.906;2022-11-15T07:01:43;33.60;;;24.88;;
52210;SDS011;38179;52.756;6.906;2022-11-15T07:04:08;33.20;;;26.10;;
52210;SDS011;38179;52.756;6.906;2022-11-15T07:06:34;30.73;;;25.58;;
52210;SDS011;38179;52.756;6.906;2022-11-15T07:09:01;31.77;;;25.27;;
52210;SDS011;38179;52.756;6.906;2022-11-15T07:11:28;31.58;;;24.92;;
52210;SDS011;38179;52.756;6.906;2022-11-15T07:13:54;30.33;;;25.58;;
52210;SDS011;38179;52.756;6.906;2022-11-15T07:16:20;34.97;;;25.25;;
52210;SDS011;38179;52.756;6.906;2022-11-15T07:18:46;27.20;;;24.23;;
52210;SDS011;38179;52.756;6.906;2022-11-15T07:21:11;29.27;;;25.50;;
52210;SDS011;38179;52.756;6.906;2022-11-15T07:23:38;31.50;;;24.98;;
52210;SDS011;38179;52.756;6.906;2022-11-15T07:26:04;30.17;;;24.30;;
52210;SDS011;38179;52.756;6.906;2022-11-15T07:28:31;30.17;;;24.25;;
52210;SDS011;38179;52.756;6.906;2022-11-15T07:30:57;30.45;;;25.73;;
52210;SDS011;38179;52.756;6.906;2022-11-15T07:33:23;31.85;;;25.67;;
52210;SDS011;38179;52.756;6.906;2022-11-15T07:35:49;28.02;;;24.83;;
52210;SDS011;38179;52.756;6.906;2022-11-15T07:38:15;31.75;;;26.13;;
52210;SDS011;38179;52.756;6.906;2022-11-15T07:40:44;30.65;;;26.17;;
52210;SDS011;38179;52.756;6.906;2022-11-15T07:43:11;33.30;;;27.00;;
52210;SDS011;38179;52.756;6.906;2022-11-15T07:45:43;31.27;;;26.23;;
52210;SDS011;38179;52.756;6.906;2022-11-15T07:48:10;33.38;;;26.63;;
52210;SDS011;38179;52.756;6.906;2022-11-15T07:50:36;32.75;;;26.20;;
52210;SDS011;38179;52.756;6.906;2022-11-15T07:53:05;33.53;;;25.08;;
52210;SDS011;38179;52.756;6.906;2022-11-15T07:55:31;34.38;;;25.23;;
52210;SDS011;38179;52.756;6.906;2022-11-15T07:58:03;31.13;;;26.15;;
52210;SDS011;38179;52.756;6.906;2022-11-15T08:00:30;29.80;;;26.33;;
52210;SDS011;38179;52.756;6.906;2022-11-15T08:03:03;29.58;;;25.30;;
52210;SDS011;38179;52.756;6.906;2022-11-15T08:05:37;31.15;;;27.63;;
52210;SDS011;38179;52.756;6.906;2022-11-15T08:08:03;32.28;;;27.05;;
52210;SDS011;38179;52.756;6.906;2022-11-15T08:10:30;29.95;;;26.10;;
52210;SDS011;38179;52.756;6.906;2022-11-15T08:13:00;34.25;;;24.90;;
52210;SDS011;38179;52.756;6.906;2022-11-15T08:15:27;29.90;;;26.08;;
52210;SDS011;38179;52.756;6.906;2022-11-15T08:17:58;33.42;;;26.73;;
52210;SDS011;38179;52.756;6.906;2022-11-15T08:20:29;30.98;;;27.63;;
52210;SDS011;38179;52.756;6.906;2022-11-15T08:22:56;32.45;;;28.92;;
52210;SDS011;38179;52.756;6.906;2022-11-15T08:25:23;32.63;;;28.65;;
52210;SDS011;38179;52.756;6.906;2022-11-15T08:27:55;31.98;;;28.55;;
52210;SDS011;38179;52.756;6.906;2022-11-15T08:30:22;33.13;;;27.27;;
52210;SDS011;38179;52.756;6.906;2022-11-15T08:32:49;36.08;;;28.75;;
52210;SDS011;38179;52.756;6.906;2022-11-15T08:35:16;32.95;;;29.40;;
52210;SDS011;38179;52.756;6.906;2022-11-15T08:37:43;33.15;;;29.55;;
52210;SDS011;38179;52.756;6.906;2022-11-15T08:40:09;36.75;;;28.95;;
52210;SDS011;38179;52.756;6.906;2022-11-15T08:42:36;37.15;;;31.35;;
52210;SDS011;38179;52.756;6.906;2022-11-15T08:45:02;32.97;;;28.05;;
52210;SDS011;38179;52.756;6.906;2022-11-15T08:47:28;34.00;;;29.40;;
52210;SDS011;38179;52.756;6.906;2022-11-15T08:49:54;33.72;;;30.10;;
52210;SDS011;38179;52.756;6.906;2022-11-15T08:52:20;33.67;;;29.40;;
52210;SDS011;38179;52.756;6.906;2022-11-15T08:54:46;33.83;;;27.77;;
52210;SDS011;38179;52.756;6.906;2022-11-15T08:57:12;32.35;;;27.77;;
52210;SDS011;38179;52.756;6.906;2022-11-15T08:59:38;34.22;;;29.67;;
52210;SDS011;38179;52.756;6.906;2022-11-15T09:02:04;34.08;;;28.83;;
52210;SDS011;38179;52.756;6.906;2022-11-15T09:04:31;34.97;;;29.10;;
52210;SDS011;38179;52.756;6.906;2022-11-15T09:06:57;35.13;;;30.27;;
52210;SDS011;38179;52.756;6.906;2022-11-15T09:09:23;32.97;;;29.35;;
52210;SDS011;38179;52.756;6.906;2022-11-15T09:11:49;33.03;;;28.75;;
52210;SDS011;38179;52.756;6.906;2022-11-15T09:14:15;35.08;;;30.20;;
52210;SDS011;38179;52.756;6.906;2022-11-15T09:16:41;32.38;;;28.95;;
52210;SDS011;38179;52.756;6.906;2022-11-15T09:19:07;34.53;;;29.23;;
52210;SDS011;38179;52.756;6.906;2022-11-15T09:21:33;35.85;;;29.95;;
52210;SDS011;38179;52.756;6.906;2022-11-15T09:23:59;36.15;;;28.55;;
52210;SDS011;38179;52.756;6.906;2022-11-15T09:26:25;30.55;;;27.23;;
52210;SDS011;38179;52.756;6.906;2022-11-15T09:28:51;32.20;;;27.77;;
52210;SDS011;38179;52.756;6.906;2022-11-15T09:31:17;30.63;;;27.25;;
52210;SDS011;38179;52.756;6.906;2022-11-15T09:33:43;31.55;;;28.27;;
52210;SDS011;38179;52.756;6.906;2022-11-15T09:36:10;31.05;;;27.35;;
52210;SDS011;38179;52.756;6.906;2022-11-15T09:38:36;30.55;;;27.25;;
52210;SDS011;38179;52.756;6.906;2022-11-15T09:41:08;30.48;;;26.92;;
52210;SDS011;38179;52.756;6.906;2022-11-15T09:43:56;30.40;;;27.02;;
52210;SDS011;38179;52.756;6.906;2022-11-15T09:49:19;29.48;;;26.27;;
52210;SDS011;38179;52.756;6.906;2022-11-15T09:51:46;29.30;;;26.27;;
52210;SDS011;38179;52.756;6.906;2022-11-15T09:54:32;30.67;;;26.58;;
52210;SDS011;38179;52.756;6.906;2022-11-15T09:57:10;32.22;;;28.80;;
52210;SDS011;38179;52.756;6.906;2022-11-15T10:04:58;30.60;;;27.35;;
52210;SDS011;38179;52.756;6.906;2022-11-15T10:10:18;28.40;;;25.45;;
52210;SDS011;38179;52.756;6.906;2022-11-15T10:13:17;27.48;;;24.55;;
52210;SDS011;38179;52.756;6.906;2022-11-15T10:15:48;27.20;;;24.38;;
52210;SDS011;38179;52.756;6.906;2022-11-15T10:21:17;26.27;;;23.67;;
52210;SDS011;38179;52.756;6.906;2022-11-15T10:23:47;25.33;;;22.60;;
52210;SDS011;38179;52.756;6.906;2022-11-15T10:26:15;26.67;;;23.98;;
52210;SDS011;38179;52.756;6.906;2022-11-15T10:28:42;25.70;;;22.75;;
52210;SDS011;38179;52.756;6.906;2022-11-15T10:31:20;25.63;;;23.08;;
52210;SDS011;38179;52.756;6.906;2022-11-15T10:36:15;26.25;;;23.50;;
52210;SDS011;38179;52.756;6.906;2022-11-15T10:41:16;25.95;;;23.08;;
52210;SDS011;38179;52.756;6.906;2022-11-15T10:43:42;26.40;;;23.67;;
52210;SDS011;38179;52.756;6.906;2022-11-15T10:46:17;27.38;;;24.48;;
52210;SDS011;38179;52.756;6.906;2022-11-15T10:48:48;25.27;;;22.88;;
52210;SDS011;38179;52.756;6.906;2022-11-15T10:51:21;24.98;;;22.58;;
52210;SDS011;38179;52.756;6.906;2022-11-15T10:53:53;24.02;;;21.63;;
52210;SDS011;38179;52.756;6.906;2022-11-15T10:56:22;24.20;;;21.85;;
52210;SDS011;38179;52.756;6.906;2022-11-15T10:58:51;23.63;;;21.33;;
52210;SDS011;38179;52.756;6.906;2022-11-15T11:01:23;23.92;;;21.58;;
52210;SDS011;38179;52.756;6.906;2022-11-15T11:03:58;23.63;;;21.38;;
52210;SDS011;38179;52.756;6.906;2022-11-15T11:06:24;23.33;;;20.92;;
52210;SDS011;38179;52.756;6.906;2022-11-15T11:09:03;22.95;;;20.73;;
52210;SDS011;38179;52.756;6.906;2022-11-15T11:11:47;23.08;;;20.88;;
52210;SDS011;38179;52.756;6.906;2022-11-15T11:14:24;20.08;;;18.35;;
52210;SDS011;38179;52.756;6.906;2022-11-15T11:22:29;16.90;;;15.20;;
52210;SDS011;38179;52.756;6.906;2022-11-15T11:25:19;16.73;;;15.23;;
52210;SDS011;38179;52.756;6.906;2022-11-15T11:30:50;16.63;;;15.13;;
52210;SDS011;38179;52.756;6.906;2022-11-15T11:36:28;15.93;;;14.23;;
52210;SDS011;38179;52.756;6.906;2022-11-15T11:47:21;15.32;;;14.02;;
52210;SDS011;38179;52.756;6.906;2022-11-15T11:49:57;15.73;;;14.10;;
52210;SDS011;38179;52.756;6.906;2022-11-15T11:52:31;15.23;;;13.70;;
52210;SDS011;38179;52.756;6.906;2022-11-15T11:55:11;14.57;;;12.88;;
52210;SDS011;38179;52.756;6.906;2022-11-15T12:03:24;14.77;;;13.25;;
52210;SDS011;38179;52.756;6.906;2022-11-15T12:06:05;14.60;;;13.07;;
52210;SDS011;38179;52.756;6.906;2022-11-15T12:13:58;13.90;;;12.63;;
52210;SDS011;38179;52.756;6.906;2022-11-15T12:16:29;13.52;;;12.23;;
52210;SDS011;38179;52.756;6.906;2022-11-15T12:19:00;14.35;;;12.95;;
52210;SDS011;38179;52.756;6.906;2022-11-15T12:24:20;14.30;;;13.00;;
52210;SDS011;38179;52.756;6.906;2022-11-15T12:29:46;13.73;;;12.52;;
52210;SDS011;38179;52.756;6.906;2022-11-15T12:34:52;14.00;;;12.68;;
52210;SDS011;38179;52.756;6.906;2022-11-15T12:37:32;14.05;;;12.65;;
52210;SDS011;38179;52.756;6.906;2022-11-15T12:40:17;14.82;;;13.52;;
52210;SDS011;38179;52.756;6.906;2022-11-15T12:42:58;14.07;;;12.82;;
52210;SDS011;38179;52.756;6.906;2022-11-15T12:45:26;14.27;;;12.98;;
52210;SDS011;38179;52.756;6.906;2022-11-15T12:47:56;13.80;;;12.50;;
52210;SDS011;38179;52.756;6.906;2022-11-15T12:50:53;13.30;;;12.13;;
52210;SDS011;38179;52.756;6.906;2022-11-15T13:06:41;13.18;;;12.02;;
52210;SDS011;38179;52.756;6.906;2022-11-15T13:12:00;12.35;;;11.35;;
52210;SDS011;38179;52.756;6.906;2022-11-15T13:19:47;12.52;;;11.43;;
52210;SDS011;38179;52.756;6.906;2022-11-15T13:22:18;12.98;;;11.88;;
52210;SDS011;38179;52.756;6.906;2022-11-15T13:25:02;12.88;;;11.68;;
52210;SDS011;38179;52.756;6.906;2022-11-15T13:27:29;13.95;;;12.70;;
52210;SDS011;38179;52.756;6.906;2022-11-15T13:29:56;12.93;;;11.82;;
52210;SDS011;38179;52.756;6.906;2022-11-15T13:32:21;13.15;;;12.07;;
52210;SDS011;38179;52.756;6.906;2022-11-15T13:34:48;13.35;;;12.15;;
52210;SDS011;38179;52.756;6.906;2022-11-15T13:39:47;13.23;;;12.05;;
52210;SDS011;38179;52.756;6.906;2022-11-15T13:42:17;13.30;;;12.23;;
52210;SDS011;38179;52.756;6.906;2022-11-15T13:47:25;13.63;;;12.52;;
52210;SDS011;38179;52.756;6.906;2022-11-15T13:49:52;14.32;;;13.00;;
52210;SDS011;38179;52.756;6.906;2022-11-15T13:52:18;13.80;;;12.70;;
52210;SDS011;38179;52.756;6.906;2022-11-15T13:55:31;13.93;;;12.82;;
52210;SDS011;38179;52.756;6.906;2022-11-15T13:57:43;13.55;;;12.43;;
52210;SDS011;38179;52.756;6.906;2022-11-15T14:00:24;13.68;;;12.57;;
52210;SDS011;38179;52.756;6.906;2022-11-15T14:02:54;14.55;;;13.25;;
52210;SDS011;38179;52.756;6.906;2022-11-15T14:05:22;15.10;;;13.77;;
52210;SDS011;38179;52.756;6.906;2022-11-15T14:07:56;14.02;;;12.82;;
52210;SDS011;38179;52.756;6.906;2022-11-15T14:10:36;14.05;;;12.82;;
52210;SDS011;38179;52.756;6.906;2022-11-15T14:13:03;14.93;;;13.45;;
52210;SDS011;38179;52.756;6.906;2022-11-15T14:15:36;13.90;;;12.73;;
52210;SDS011;38179;52.756;6.906;2022-11-15T14:18:03;14.50;;;13.38;;
52210;SDS011;38179;52.756;6.906;2022-11-15T14:20:37;14.90;;;13.70;;
52210;SDS011;38179;52.756;6.906;2022-11-15T14:23:05;14.95;;;13.68;;
52210;SDS011;38179;52.756;6.906;2022-11-15T14:25:53;14.70;;;13.50;;
52210;SDS011;38179;52.756;6.906;2022-11-15T14:30:49;14.90;;;13.50;;
52210;SDS011;38179;52.756;6.906;2022-11-15T14:35:50;14.82;;;13.43;;
52210;SDS011;38179;52.756;6.906;2022-11-15T14:38:18;13.98;;;12.57;;
52210;SDS011;38179;52.756;6.906;2022-11-15T14:40:44;15.02;;;13.63;;
52210;SDS011;38179;52.756;6.906;2022-11-15T14:43:10;14.45;;;13.25;;
52210;SDS011;38179;52.756;6.906;2022-11-15T14:45:36;14.77;;;13.38;;
52210;SDS011;38179;52.756;6.906;2022-11-15T14:48:03;14.88;;;13.68;;
52210;SDS011;38179;52.756;6.906;2022-11-15T14:50:29;14.40;;;13.20;;
52210;SDS011;38179;52.756;6.906;2022-11-15T14:52:56;14.75;;;13.38;;
52210;SDS011;38179;52.756;6.906;2022-11-15T14:55:29;14.88;;;13.32;;
52210;SDS011;38179;52.756;6.906;2022-11-15T14:57:58;14.38;;;13.18;;
52210;SDS011;38179;52.756;6.906;2022-11-15T15:00:24;13.70;;;12.60;;
52210;SDS011;38179;52.756;6.906;2022-11-15T15:02:52;14.13;;;13.02;;
52210;SDS011;38179;52.756;6.906;2022-11-15T15:05:20;13.95;;;12.73;;
52210;SDS011;38179;52.756;6.906;2022-11-15T15:07:48;14.02;;;12.75;;
52210;SDS011;38179;52.756;6.906;2022-11-15T15:10:15;14.15;;;12.95;;
52210;SDS011;38179;52.756;6.906;2022-11-15T15:12:42;13.40;;;12.30;;
52210;SDS011;38179;52.756;6.906;2022-11-15T15:15:12;14.40;;;13.18;;
52210;SDS011;38179;52.756;6.906;2022-11-15T15:17:40;14.02;;;12.80;;
52210;SDS011;38179;52.756;6.906;2022-11-15T15:20:06;13.93;;;12.82;;
52210;SDS011;38179;52.756;6.906;2022-11-15T15:22:32;14.23;;;13.13;;
52210;SDS011;38179;52.756;6.906;2022-11-15T15:24:58;14.07;;;12.73;;
52210;SDS011;38179;52.756;6.906;2022-11-15T15:27:24;13.73;;;12.63;;
52210;SDS011;38179;52.756;6.906;2022-11-15T15:29:50;13.88;;;12.75;;
52210;SDS011;38179;52.756;6.906;2022-11-15T15:32:16;13.77;;;12.65;;
52210;SDS011;38179;52.756;6.906;2022-11-15T15:34:41;13.13;;;12.00;;
52210;SDS011;38179;52.756;6.906;2022-11-15T15:39:49;12.48;;;11.48;;
52210;SDS011;38179;52.756;6.906;2022-11-15T15:42:19;13.10;;;11.82;;
52210;SDS011;38179;52.756;6.906;2022-11-15T15:44:46;12.48;;;11.48;;
52210;SDS011;38179;52.756;6.906;2022-11-15T15:47:16;12.18;;;11.18;;
52210;SDS011;38179;52.756;6.906;2022-11-15T15:49:45;12.27;;;11.18;;
52210;SDS011;38179;52.756;6.906;2022-11-15T15:52:11;12.73;;;11.55;;
52210;SDS011;38179;52.756;6.906;2022-11-15T15:54:38;14.00;;;11.63;;
52210;SDS011;38179;52.756;6.906;2022-11-15T15:57:04;12.98;;;11.52;;
52210;SDS011;38179;52.756;6.906;2022-11-15T15:59:30;12.52;;;11.43;;
52210;SDS011;38179;52.756;6.906;2022-11-15T16:01:56;12.23;;;11.13;;
52210;SDS011;38179;52.756;6.906;2022-11-15T16:04:22;12.55;;;11.45;;
52210;SDS011;38179;52.756;6.906;2022-11-15T16:06:49;12.40;;;11.20;;
52210;SDS011;38179;52.756;6.906;2022-11-15T16:09:17;12.35;;;11.35;;
52210;SDS011;38179;52.756;6.906;2022-11-15T16:12:04;12.02;;;11.02;;
52210;SDS011;38179;52.756;6.906;2022-11-15T16:14:31;11.70;;;10.60;;
52210;SDS011;38179;52.756;6.906;2022-11-15T16:16:57;12.95;;;11.35;;
52210;SDS011;38179;52.756;6.906;2022-11-15T16:19:23;11.82;;;10.77;;
52210;SDS011;38179;52.756;6.906;2022-11-15T16:21:49;12.52;;;11.32;;
52210;SDS011;38179;52.756;6.906;2022-11-15T16:24:17;12.07;;;11.07;;
52210;SDS011;38179;52.756;6.906;2022-11-15T16:26:44;11.57;;;10.57;;
52210;SDS011;38179;52.756;6.906;2022-11-15T16:29:10;12.18;;;10.98;;
52210;SDS011;38179;52.756;6.906;2022-11-15T16:31:36;12.35;;;11.13;;
52210;SDS011;38179;52.756;6.906;2022-11-15T16:34:02;11.73;;;10.73;;